KSBN

South Bend International Airport

South Bend, Indiana, USA
METAR KSBN 191654Z 07003KT 10SM SCT030 SCT080 27/19 A3002 RMK AO2 SLP160 T02720189
Observed Flight Rules
Aug-19 @ 16:54 UTC (19 minutes ago) Visual Flight Rules
Wind Visibility Clouds
70° at 3 knots 10 miles
  • Scattered at 3,000' AGL
  • Scattered at 8,000' AGL
Temperatures Readings
Current 27°C / 81°F
Dewpoint 19°C / 66°F
Humidity 62%
Altimeter 30.02" Hg
Pressure 1016 hPa
Elevation 237
METAR KSBN 191654Z 07003KT 10SM SCT030 SCT080 27/19 A3002 RMK AO2 SLP160 T02720189
Observed Flight Rules
Aug-19 @ 16:54 UTC
(19 minutes ago)
VFR
Wind Visibility
70° at 3 knots 10 miles
Clouds
  • Scattered at 3,000' AGL
  • Scattered at 8,000' AGL
Temperature Dewpoint
27°C / 81°F 19°C / 66°F
Humidity Altimeter Pressure
62% 30.02" Hg 1016 hPa